sensor_id;sensor_type;location;lat;lon;timestamp;P1;durP1;ratioP1;P2;durP2;ratioP2
41556;SDS011;27720;51.992;5.890;2023-08-01T00:00:34;2.65;;;1.00;;
41556;SDS011;27720;51.992;5.890;2023-08-01T00:03:02;3.53;;;1.38;;
41556;SDS011;27720;51.992;5.890;2023-08-01T00:05:28;2.22;;;1.20;;
41556;SDS011;27720;51.992;5.890;2023-08-01T00:07:54;2.15;;;1.20;;
41556;SDS011;27720;51.992;5.890;2023-08-01T00:10:20;3.75;;;1.70;;
41556;SDS011;27720;51.992;5.890;2023-08-01T00:12:46;4.75;;;2.10;;
41556;SDS011;27720;51.992;5.890;2023-08-01T00:15:12;3.13;;;1.23;;
41556;SDS011;27720;51.992;5.890;2023-08-01T00:17:40;3.25;;;1.55;;
41556;SDS011;27720;51.992;5.890;2023-08-01T00:20:10;3.17;;;1.58;;
41556;SDS011;27720;51.992;5.890;2023-08-01T00:22:36;2.25;;;0.93;;
41556;SDS011;27720;51.992;5.890;2023-08-01T00:25:01;3.53;;;1.00;;
41556;SDS011;27720;51.992;5.890;2023-08-01T00:27:28;1.88;;;1.00;;
41556;SDS011;27720;51.992;5.890;2023-08-01T00:29:54;4.50;;;1.42;;
41556;SDS011;27720;51.992;5.890;2023-08-01T00:32:20;3.95;;;0.80;;
41556;SDS011;27720;51.992;5.890;2023-08-01T00:34:46;3.63;;;1.20;;
41556;SDS011;27720;51.992;5.890;2023-08-01T00:37:15;1.33;;;0.68;;
41556;SDS011;27720;51.992;5.890;2023-08-01T00:39:42;1.77;;;0.70;;
41556;SDS011;27720;51.992;5.890;2023-08-01T00:42:11;1.83;;;0.63;;
41556;SDS011;27720;51.992;5.890;2023-08-01T00:44:40;2.10;;;1.17;;
41556;SDS011;27720;51.992;5.890;2023-08-01T00:47:09;0.95;;;0.43;;
41556;SDS011;27720;51.992;5.890;2023-08-01T00:49:35;1.27;;;0.80;;
41556;SDS011;27720;51.992;5.890;2023-08-01T00:52:01;2.35;;;0.80;;
41556;SDS011;27720;51.992;5.890;2023-08-01T00:57:03;0.98;;;0.60;;
41556;SDS011;27720;51.992;5.890;2023-08-01T00:59:29;2.63;;;1.00;;
41556;SDS011;27720;51.992;5.890;2023-08-01T01:01:55;2.53;;;0.73;;
41556;SDS011;27720;51.992;5.890;2023-08-01T01:04:22;2.65;;;0.88;;
41556;SDS011;27720;51.992;5.890;2023-08-01T01:06:55;2.33;;;1.00;;
41556;SDS011;27720;51.992;5.890;2023-08-01T01:09:27;2.80;;;0.95;;
41556;SDS011;27720;51.992;5.890;2023-08-01T01:11:56;3.17;;;1.48;;
41556;SDS011;27720;51.992;5.890;2023-08-01T01:14:26;3.60;;;1.95;;
41556;SDS011;27720;51.992;5.890;2023-08-01T01:16:52;3.63;;;0.93;;
41556;SDS011;27720;51.992;5.890;2023-08-01T01:19:18;1.85;;;1.15;;
41556;SDS011;27720;51.992;5.890;2023-08-01T01:21:47;2.90;;;0.90;;
41556;SDS011;27720;51.992;5.890;2023-08-01T01:24:15;2.78;;;1.23;;
41556;SDS011;27720;51.992;5.890;2023-08-01T01:26:42;1.98;;;1.10;;
41556;SDS011;27720;51.992;5.890;2023-08-01T01:29:10;2.45;;;0.80;;
41556;SDS011;27720;51.992;5.890;2023-08-01T01:31:36;1.65;;;0.82;;
41556;SDS011;27720;51.992;5.890;2023-08-01T01:34:07;3.28;;;1.13;;
41556;SDS011;27720;51.992;5.890;2023-08-01T01:36:33;1.30;;;0.75;;
41556;SDS011;27720;51.992;5.890;2023-08-01T01:38:59;2.83;;;0.90;;
41556;SDS011;27720;51.992;5.890;2023-08-01T01:41:25;1.70;;;1.00;;
41556;SDS011;27720;51.992;5.890;2023-08-01T01:43:53;1.95;;;0.98;;
41556;SDS011;27720;51.992;5.890;2023-08-01T01:46:19;1.60;;;1.08;;
41556;SDS011;27720;51.992;5.890;2023-08-01T01:48:55;2.15;;;1.13;;
41556;SDS011;27720;51.992;5.890;2023-08-01T01:51:55;2.33;;;1.33;;
41556;SDS011;27720;51.992;5.890;2023-08-01T01:54:21;2.60;;;1.20;;
41556;SDS011;27720;51.992;5.890;2023-08-01T01:56:48;2.33;;;1.40;;
41556;SDS011;27720;51.992;5.890;2023-08-01T01:59:14;2.50;;;1.40;;
41556;SDS011;27720;51.992;5.890;2023-08-01T02:01:40;3.38;;;1.30;;
41556;SDS011;27720;51.992;5.890;2023-08-01T02:04:08;2.60;;;1.20;;
41556;SDS011;27720;51.992;5.890;2023-08-01T02:06:35;2.58;;;1.40;;
41556;SDS011;27720;51.992;5.890;2023-08-01T02:09:01;2.22;;;1.23;;
41556;SDS011;27720;51.992;5.890;2023-08-01T02:11:29;3.17;;;1.25;;
41556;SDS011;27720;51.992;5.890;2023-08-01T02:13:55;2.10;;;1.13;;
41556;SDS011;27720;51.992;5.890;2023-08-01T02:16:20;2.42;;;1.10;;
41556;SDS011;27720;51.992;5.890;2023-08-01T02:18:46;3.35;;;1.63;;
41556;SDS011;27720;51.992;5.890;2023-08-01T02:21:12;3.47;;;1.48;;
41556;SDS011;27720;51.992;5.890;2023-08-01T02:23:38;4.45;;;2.05;;
41556;SDS011;27720;51.992;5.890;2023-08-01T02:26:03;3.70;;;1.67;;
41556;SDS011;27720;51.992;5.890;2023-08-01T02:28:34;4.43;;;1.95;;
41556;SDS011;27720;51.992;5.890;2023-08-01T02:31:00;4.18;;;1.52;;
41556;SDS011;27720;51.992;5.890;2023-08-01T02:33:26;3.20;;;1.83;;
41556;SDS011;27720;51.992;5.890;2023-08-01T02:35:53;3.72;;;1.35;;
41556;SDS011;27720;51.992;5.890;2023-08-01T02:38:19;5.35;;;1.95;;
41556;SDS011;27720;51.992;5.890;2023-08-01T02:40:45;3.03;;;1.23;;
41556;SDS011;27720;51.992;5.890;2023-08-01T02:43:11;3.78;;;1.45;;
41556;SDS011;27720;51.992;5.890;2023-08-01T02:45:37;4.28;;;1.90;;
41556;SDS011;27720;51.992;5.890;2023-08-01T02:48:03;2.92;;;1.15;;
41556;SDS011;27720;51.992;5.890;2023-08-01T02:50:29;2.60;;;1.38;;
41556;SDS011;27720;51.992;5.890;2023-08-01T02:52:56;3.58;;;1.35;;
41556;SDS011;27720;51.992;5.890;2023-08-01T02:55:25;3.10;;;1.73;;
41556;SDS011;27720;51.992;5.890;2023-08-01T02:57:51;3.88;;;1.42;;
41556;SDS011;27720;51.992;5.890;2023-08-01T03:00:17;1.95;;;1.23;;
41556;SDS011;27720;51.992;5.890;2023-08-01T03:02:46;3.22;;;1.30;;
41556;SDS011;27720;51.992;5.890;2023-08-01T03:05:11;2.90;;;0.95;;
41556;SDS011;27720;51.992;5.890;2023-08-01T03:07:37;3.38;;;1.23;;
41556;SDS011;27720;51.992;5.890;2023-08-01T03:10:03;1.63;;;0.93;;
41556;SDS011;27720;51.992;5.890;2023-08-01T03:12:29;3.53;;;1.33;;
41556;SDS011;27720;51.992;5.890;2023-08-01T03:14:56;5.13;;;1.58;;
41556;SDS011;27720;51.992;5.890;2023-08-01T03:17:22;4.63;;;1.45;;
41556;SDS011;27720;51.992;5.890;2023-08-01T03:19:48;1.88;;;1.10;;
41556;SDS011;27720;51.992;5.890;2023-08-01T03:22:14;2.58;;;1.40;;
41556;SDS011;27720;51.992;5.890;2023-08-01T03:24:39;3.40;;;1.38;;
41556;SDS011;27720;51.992;5.890;2023-08-01T03:27:05;2.95;;;1.30;;
41556;SDS011;27720;51.992;5.890;2023-08-01T03:29:31;3.38;;;1.17;;
41556;SDS011;27720;51.992;5.890;2023-08-01T03:31:57;3.08;;;1.42;;
41556;SDS011;27720;51.992;5.890;2023-08-01T03:34:23;2.45;;;1.17;;
41556;SDS011;27720;51.992;5.890;2023-08-01T03:36:52;3.65;;;1.40;;
41556;SDS011;27720;51.992;5.890;2023-08-01T03:39:18;5.20;;;1.10;;
41556;SDS011;27720;51.992;5.890;2023-08-01T03:41:43;5.28;;;1.67;;
41556;SDS011;27720;51.992;5.890;2023-08-01T03:44:09;4.88;;;1.63;;
41556;SDS011;27720;51.992;5.890;2023-08-01T03:46:35;3.85;;;2.22;;
41556;SDS011;27720;51.992;5.890;2023-08-01T03:49:02;5.70;;;1.92;;
41556;SDS011;27720;51.992;5.890;2023-08-01T03:51:27;3.65;;;1.75;;
41556;SDS011;27720;51.992;5.890;2023-08-01T03:53:53;3.60;;;1.65;;
41556;SDS011;27720;51.992;5.890;2023-08-01T03:56:19;4.63;;;2.28;;
41556;SDS011;27720;51.992;5.890;2023-08-01T03:58:45;5.22;;;1.90;;
41556;SDS011;27720;51.992;5.890;2023-08-01T04:01:13;8.43;;;2.72;;
41556;SDS011;27720;51.992;5.890;2023-08-01T04:03:39;5.57;;;2.35;;
41556;SDS011;27720;51.992;5.890;2023-08-01T04:06:04;6.45;;;2.20;;
41556;SDS011;27720;51.992;5.890;2023-08-01T04:08:30;6.63;;;3.22;;
41556;SDS011;27720;51.992;5.890;2023-08-01T04:10:56;7.80;;;2.17;;
41556;SDS011;27720;51.992;5.890;2023-08-01T04:13:22;3.42;;;1.70;;
41556;SDS011;27720;51.992;5.890;2023-08-01T04:15:48;8.02;;;3.17;;
41556;SDS011;27720;51.992;5.890;2023-08-01T04:18:14;8.45;;;2.97;;
41556;SDS011;27720;51.992;5.890;2023-08-01T04:20:41;7.93;;;2.55;;
41556;SDS011;27720;51.992;5.890;2023-08-01T04:23:10;4.93;;;1.85;;
41556;SDS011;27720;51.992;5.890;2023-08-01T04:25:36;4.40;;;1.73;;
41556;SDS011;27720;51.992;5.890;2023-08-01T04:28:04;5.35;;;2.22;;
41556;SDS011;27720;51.992;5.890;2023-08-01T04:30:31;5.30;;;1.77;;
41556;SDS011;27720;51.992;5.890;2023-08-01T04:32:58;5.13;;;2.20;;
41556;SDS011;27720;51.992;5.890;2023-08-01T04:35:26;7.70;;;2.05;;
41556;SDS011;27720;51.992;5.890;2023-08-01T04:37:52;6.90;;;3.20;;
41556;SDS011;27720;51.992;5.890;2023-08-01T04:40:18;5.53;;;2.28;;
41556;SDS011;27720;51.992;5.890;2023-08-01T04:42:49;5.07;;;2.20;;
41556;SDS011;27720;51.992;5.890;2023-08-01T04:45:16;9.60;;;2.38;;
41556;SDS011;27720;51.992;5.890;2023-08-01T04:47:42;3.10;;;1.50;;
41556;SDS011;27720;51.992;5.890;2023-08-01T04:50:08;5.90;;;2.20;;
41556;SDS011;27720;51.992;5.890;2023-08-01T04:52:35;7.53;;;2.47;;
41556;SDS011;27720;51.992;5.890;2023-08-01T04:55:01;5.63;;;2.00;;
41556;SDS011;27720;51.992;5.890;2023-08-01T04:57:27;3.00;;;1.20;;
41556;SDS011;27720;51.992;5.890;2023-08-01T04:59:55;5.78;;;1.60;;
41556;SDS011;27720;51.992;5.890;2023-08-01T05:02:21;7.63;;;2.22;;
41556;SDS011;27720;51.992;5.890;2023-08-01T05:04:47;4.28;;;1.92;;
41556;SDS011;27720;51.992;5.890;2023-08-01T05:07:13;4.10;;;2.20;;
41556;SDS011;27720;51.992;5.890;2023-08-01T05:09:38;5.28;;;1.98;;
41556;SDS011;27720;51.992;5.890;2023-08-01T05:12:05;5.25;;;2.03;;
41556;SDS011;27720;51.992;5.890;2023-08-01T05:14:34;3.85;;;1.55;;
